Meadows Field
KBFL : now visible

Airfield :











YOU CAN JOIN US ON...

 
LOGIN :

Register | Disclaimer

   EN    FR    IT 

 









Legend :    VFR   Marginal VFR   IFR   Intensive IFR   Very Intensive IFR
Visi :
Ceiling :
>= 8 km
>= 3000ft
5 to 8 km
1000 to 3000 ft
1500m to 5 km
500 to 1000 ft
800 to 1500m
200 to 500 ft
< 800m
< 200 ft
Symbols :   Thunderstorms  Fog  Heavy snow  Heavy precipitations  Wind > 20 kt







- Airport Elevation : 510 ft
- IATA code : BFL


KBFL - Meadows Field

CURRENT METAR :
  • 260154Z 33008KT 10SM CLR 36/14 A2984 RMK AO2 SLP098 T03610144

EXPIRED METARs :
  • 260054Z 30010KT 10SM CLR 37/14 A2986 RMK AO2 SLP102 T03720144
  • 252354Z 30010KT 10SM FEW120 38/14 A2987 RMK AO2 SLP105 T03780139 10383 20317 56020

TAF KBFL
Valid from the 26 at 00:00 until the 27 at 00:00 UTC


252320Z 2600/2624 30010G15KT P6SM SKC
FM260100 VRB05KT P6SM SKC
FM262000 30008G14KT P6SM SKC
No reported NOTAMs for that airfield.



MET'MAP, your aeronautical weather chart ! - Copyright ORBIFLY December 2007 - Disclaimer

ORBIFLY MET'MAP TEAM :

Programming & Development : Alexandra Zaïnal
Concept & Development : Baudouin d'Aumeries
Co-Development & Prog : Marc-Olivier Méhu
Technical & hardware support : Manuel Goepfert

Contact : metmap@orbifly.com




SOURCES & CREDITS :

   NOAA       Earth
Advisory